sensor_id;sensor_type;location;lat;lon;timestamp;P1;durP1;ratioP1;P2;durP2;ratioP2
45848;SDS011;31567;54.600;9.842;2024-03-02T00:03:26;45.83;;;28.38;;
45848;SDS011;31567;54.600;9.842;2024-03-02T00:07:06;48.17;;;29.75;;
45848;SDS011;31567;54.600;9.842;2024-03-02T00:10:46;46.38;;;29.20;;
45848;SDS011;31567;54.600;9.842;2024-03-02T00:14:28;43.92;;;27.98;;
45848;SDS011;31567;54.600;9.842;2024-03-02T00:18:10;43.53;;;27.20;;
45848;SDS011;31567;54.600;9.842;2024-03-02T00:21:51;46.55;;;28.15;;
45848;SDS011;31567;54.600;9.842;2024-03-02T00:25:41;45.75;;;28.15;;
45848;SDS011;31567;54.600;9.842;2024-03-02T00:29:22;44.80;;;27.65;;
45848;SDS011;31567;54.600;9.842;2024-03-02T00:33:01;41.78;;;26.90;;
45848;SDS011;31567;54.600;9.842;2024-03-02T00:36:44;47.72;;;28.67;;
45848;SDS011;31567;54.600;9.842;2024-03-02T00:40:27;45.55;;;27.58;;
45848;SDS011;31567;54.600;9.842;2024-03-02T00:44:14;43.08;;;27.00;;
45848;SDS011;31567;54.600;9.842;2024-03-02T00:47:54;42.25;;;26.98;;
45848;SDS011;31567;54.600;9.842;2024-03-02T00:51:34;44.55;;;29.10;;
45848;SDS011;31567;54.600;9.842;2024-03-02T00:55:14;43.17;;;26.42;;
45848;SDS011;31567;54.600;9.842;2024-03-02T00:58:54;43.45;;;28.75;;
45848;SDS011;31567;54.600;9.842;2024-03-02T01:02:34;45.22;;;27.95;;
45848;SDS011;31567;54.600;9.842;2024-03-02T01:06:13;42.38;;;29.27;;
45848;SDS011;31567;54.600;9.842;2024-03-02T01:09:53;42.78;;;26.63;;
45848;SDS011;31567;54.600;9.842;2024-03-02T01:13:32;42.55;;;28.95;;
45848;SDS011;31567;54.600;9.842;2024-03-02T01:17:12;46.03;;;28.67;;
45848;SDS011;31567;54.600;9.842;2024-03-02T01:20:52;51.80;;;30.55;;
45848;SDS011;31567;54.600;9.842;2024-03-02T01:24:34;49.20;;;30.73;;
45848;SDS011;31567;54.600;9.842;2024-03-02T01:28:14;48.97;;;31.17;;
45848;SDS011;31567;54.600;9.842;2024-03-02T01:31:54;51.78;;;30.17;;
45848;SDS011;31567;54.600;9.842;2024-03-02T01:35:33;47.50;;;29.63;;
45848;SDS011;31567;54.600;9.842;2024-03-02T01:39:16;47.47;;;28.83;;
45848;SDS011;31567;54.600;9.842;2024-03-02T01:42:55;46.38;;;29.08;;
45848;SDS011;31567;54.600;9.842;2024-03-02T01:46:37;47.80;;;28.73;;
45848;SDS011;31567;54.600;9.842;2024-03-02T01:50:24;46.38;;;29.13;;
45848;SDS011;31567;54.600;9.842;2024-03-02T01:54:05;45.85;;;29.08;;
45848;SDS011;31567;54.600;9.842;2024-03-02T01:57:44;47.60;;;30.45;;
45848;SDS011;31567;54.600;9.842;2024-03-02T02:01:24;45.45;;;29.30;;
45848;SDS011;31567;54.600;9.842;2024-03-02T02:05:04;50.90;;;31.40;;
45848;SDS011;31567;54.600;9.842;2024-03-02T02:08:44;49.15;;;30.02;;
45848;SDS011;31567;54.600;9.842;2024-03-02T02:12:24;50.42;;;30.42;;
45848;SDS011;31567;54.600;9.842;2024-03-02T02:16:04;48.08;;;29.58;;
45848;SDS011;31567;54.600;9.842;2024-03-02T02:19:47;47.78;;;30.77;;
45848;SDS011;31567;54.600;9.842;2024-03-02T02:23:27;48.22;;;29.08;;
45848;SDS011;31567;54.600;9.842;2024-03-02T02:27:06;49.75;;;30.63;;
45848;SDS011;31567;54.600;9.842;2024-03-02T02:30:46;50.80;;;30.55;;
45848;SDS011;31567;54.600;9.842;2024-03-02T02:34:26;55.75;;;31.73;;
45848;SDS011;31567;54.600;9.842;2024-03-02T02:38:06;52.20;;;31.50;;
45848;SDS011;31567;54.600;9.842;2024-03-02T02:41:45;51.05;;;31.25;;
45848;SDS011;31567;54.600;9.842;2024-03-02T02:45:25;51.38;;;30.92;;
45848;SDS011;31567;54.600;9.842;2024-03-02T02:49:04;59.35;;;33.22;;
45848;SDS011;31567;54.600;9.842;2024-03-02T02:52:44;59.05;;;32.00;;
45848;SDS011;31567;54.600;9.842;2024-03-02T02:56:23;51.72;;;30.63;;
45848;SDS011;31567;54.600;9.842;2024-03-02T03:00:04;60.15;;;33.15;;
45848;SDS011;31567;54.600;9.842;2024-03-02T03:03:49;56.20;;;31.30;;
45848;SDS011;31567;54.600;9.842;2024-03-02T03:07:28;55.33;;;31.30;;
45848;SDS011;31567;54.600;9.842;2024-03-02T03:11:08;53.35;;;31.15;;
45848;SDS011;31567;54.600;9.842;2024-03-02T03:14:47;53.80;;;31.80;;
45848;SDS011;31567;54.600;9.842;2024-03-02T03:18:27;53.78;;;32.75;;
45848;SDS011;31567;54.600;9.842;2024-03-02T03:22:06;57.38;;;32.83;;
45848;SDS011;31567;54.600;9.842;2024-03-02T03:25:46;51.67;;;31.05;;
45848;SDS011;31567;54.600;9.842;2024-03-02T03:29:26;54.55;;;31.95;;
45848;SDS011;31567;54.600;9.842;2024-03-02T03:33:05;53.28;;;32.58;;
45848;SDS011;31567;54.600;9.842;2024-03-02T03:36:45;57.65;;;33.38;;
45848;SDS011;31567;54.600;9.842;2024-03-02T03:40:24;54.25;;;31.70;;
45848;SDS011;31567;54.600;9.842;2024-03-02T03:44:04;52.75;;;32.00;;
45848;SDS011;31567;54.600;9.842;2024-03-02T03:47:44;55.38;;;31.73;;
45848;SDS011;31567;54.600;9.842;2024-03-02T03:51:24;52.72;;;32.17;;
45848;SDS011;31567;54.600;9.842;2024-03-02T03:55:03;48.85;;;30.90;;
45848;SDS011;31567;54.600;9.842;2024-03-02T03:58:44;50.58;;;31.35;;
45848;SDS011;31567;54.600;9.842;2024-03-02T04:02:23;57.70;;;33.60;;
45848;SDS011;31567;54.600;9.842;2024-03-02T04:06:03;56.40;;;32.50;;
45848;SDS011;31567;54.600;9.842;2024-03-02T04:09:43;57.70;;;33.22;;
45848;SDS011;31567;54.600;9.842;2024-03-02T04:13:23;53.30;;;32.78;;
45848;SDS011;31567;54.600;9.842;2024-03-02T04:17:02;55.53;;;32.78;;
45848;SDS011;31567;54.600;9.842;2024-03-02T04:20:42;56.30;;;33.60;;
45848;SDS011;31567;54.600;9.842;2024-03-02T04:24:21;57.40;;;33.75;;
45848;SDS011;31567;54.600;9.842;2024-03-02T04:28:01;60.28;;;34.78;;
45848;SDS011;31567;54.600;9.842;2024-03-02T04:31:40;55.85;;;33.42;;
45848;SDS011;31567;54.600;9.842;2024-03-02T04:35:20;52.15;;;32.85;;
45848;SDS011;31567;54.600;9.842;2024-03-02T04:39:00;55.10;;;34.10;;
45848;SDS011;31567;54.600;9.842;2024-03-02T04:42:39;59.45;;;35.45;;
45848;SDS011;31567;54.600;9.842;2024-03-02T04:46:19;55.10;;;35.13;;
45848;SDS011;31567;54.600;9.842;2024-03-02T04:49:58;53.45;;;34.25;;
45848;SDS011;31567;54.600;9.842;2024-03-02T04:53:38;56.22;;;34.42;;
45848;SDS011;31567;54.600;9.842;2024-03-02T04:57:17;55.45;;;34.28;;
45848;SDS011;31567;54.600;9.842;2024-03-02T05:00:57;58.55;;;34.17;;
45848;SDS011;31567;54.600;9.842;2024-03-02T05:04:36;52.80;;;33.97;;
45848;SDS011;31567;54.600;9.842;2024-03-02T05:08:16;55.97;;;33.67;;
45848;SDS011;31567;54.600;9.842;2024-03-02T05:11:56;58.70;;;34.38;;
45848;SDS011;31567;54.600;9.842;2024-03-02T05:15:54;58.38;;;35.03;;
45848;SDS011;31567;54.600;9.842;2024-03-02T05:19:35;56.10;;;34.38;;
45848;SDS011;31567;54.600;9.842;2024-03-02T05:23:15;59.47;;;36.38;;
45848;SDS011;31567;54.600;9.842;2024-03-02T05:26:54;51.53;;;33.13;;
45848;SDS011;31567;54.600;9.842;2024-03-02T05:30:34;58.28;;;34.42;;
45848;SDS011;31567;54.600;9.842;2024-03-02T05:34:14;54.42;;;31.60;;
45848;SDS011;31567;54.600;9.842;2024-03-02T05:37:54;55.55;;;34.55;;
45848;SDS011;31567;54.600;9.842;2024-03-02T05:41:34;65.22;;;35.75;;
45848;SDS011;31567;54.600;9.842;2024-03-02T05:45:13;63.00;;;35.50;;
45848;SDS011;31567;54.600;9.842;2024-03-02T05:48:55;57.55;;;35.13;;
45848;SDS011;31567;54.600;9.842;2024-03-02T05:52:35;61.83;;;35.45;;
45848;SDS011;31567;54.600;9.842;2024-03-02T05:56:14;64.18;;;35.65;;
45848;SDS011;31567;54.600;9.842;2024-03-02T05:59:54;60.70;;;35.38;;
45848;SDS011;31567;54.600;9.842;2024-03-02T06:03:33;58.85;;;35.25;;
45848;SDS011;31567;54.600;9.842;2024-03-02T06:07:13;59.92;;;35.67;;
45848;SDS011;31567;54.600;9.842;2024-03-02T06:10:52;60.35;;;36.35;;
45848;SDS011;31567;54.600;9.842;2024-03-02T06:14:32;62.17;;;36.97;;
45848;SDS011;31567;54.600;9.842;2024-03-02T06:18:11;62.83;;;37.33;;
45848;SDS011;31567;54.600;9.842;2024-03-02T06:21:51;67.57;;;37.33;;
45848;SDS011;31567;54.600;9.842;2024-03-02T06:25:30;62.83;;;35.72;;
45848;SDS011;31567;54.600;9.842;2024-03-02T06:29:10;60.58;;;35.72;;
45848;SDS011;31567;54.600;9.842;2024-03-02T06:32:49;65.18;;;37.67;;
45848;SDS011;31567;54.600;9.842;2024-03-02T06:36:29;57.17;;;35.33;;
45848;SDS011;31567;54.600;9.842;2024-03-02T06:40:09;64.00;;;37.03;;
45848;SDS011;31567;54.600;9.842;2024-03-02T06:43:49;61.45;;;36.28;;
45848;SDS011;31567;54.600;9.842;2024-03-02T06:47:28;64.90;;;37.88;;
45848;SDS011;31567;54.600;9.842;2024-03-02T06:51:08;62.10;;;37.60;;
45848;SDS011;31567;54.600;9.842;2024-03-02T06:54:48;63.10;;;37.03;;
45848;SDS011;31567;54.600;9.842;2024-03-02T06:58:28;55.92;;;34.47;;
45848;SDS011;31567;54.600;9.842;2024-03-02T07:02:07;61.95;;;36.65;;
45848;SDS011;31567;54.600;9.842;2024-03-02T07:05:47;62.58;;;37.13;;
45848;SDS011;31567;54.600;9.842;2024-03-02T07:09:27;64.00;;;36.67;;
45848;SDS011;31567;54.600;9.842;2024-03-02T07:13:06;60.17;;;35.75;;
45848;SDS011;31567;54.600;9.842;2024-03-02T07:16:46;56.55;;;35.03;;
45848;SDS011;31567;54.600;9.842;2024-03-02T07:20:26;58.63;;;35.58;;
45848;SDS011;31567;54.600;9.842;2024-03-02T07:24:05;56.30;;;35.80;;
45848;SDS011;31567;54.600;9.842;2024-03-02T07:27:45;56.20;;;35.35;;
45848;SDS011;31567;54.600;9.842;2024-03-02T07:31:25;61.72;;;36.35;;
45848;SDS011;31567;54.600;9.842;2024-03-02T07:35:04;55.47;;;34.83;;
45848;SDS011;31567;54.600;9.842;2024-03-02T07:38:44;63.95;;;36.90;;
45848;SDS011;31567;54.600;9.842;2024-03-02T07:42:24;56.83;;;36.25;;
45848;SDS011;31567;54.600;9.842;2024-03-02T07:46:03;58.92;;;36.35;;
45848;SDS011;31567;54.600;9.842;2024-03-02T07:49:44;57.08;;;34.88;;
45848;SDS011;31567;54.600;9.842;2024-03-02T07:53:25;54.35;;;35.13;;
45848;SDS011;31567;54.600;9.842;2024-03-02T07:57:04;57.72;;;35.70;;
45848;SDS011;31567;54.600;9.842;2024-03-02T08:00:44;55.05;;;34.42;;
45848;SDS011;31567;54.600;9.842;2024-03-02T08:04:24;53.55;;;34.83;;
45848;SDS011;31567;54.600;9.842;2024-03-02T08:08:04;57.85;;;35.50;;
45848;SDS011;31567;54.600;9.842;2024-03-02T08:11:44;52.17;;;32.83;;
45848;SDS011;31567;54.600;9.842;2024-03-02T08:15:23;55.13;;;33.92;;
45848;SDS011;31567;54.600;9.842;2024-03-02T08:19:03;49.40;;;33.08;;
45848;SDS011;31567;54.600;9.842;2024-03-02T08:22:42;50.95;;;33.50;;
45848;SDS011;31567;54.600;9.842;2024-03-02T08:26:22;48.00;;;32.38;;
45848;SDS011;31567;54.600;9.842;2024-03-02T08:30:02;48.60;;;33.90;;
45848;SDS011;31567;54.600;9.842;2024-03-02T08:33:45;50.17;;;33.28;;
45848;SDS011;31567;54.600;9.842;2024-03-02T08:37:24;49.13;;;32.53;;
45848;SDS011;31567;54.600;9.842;2024-03-02T08:41:04;47.22;;;32.17;;
45848;SDS011;31567;54.600;9.842;2024-03-02T08:44:44;50.28;;;32.35;;
45848;SDS011;31567;54.600;9.842;2024-03-02T08:48:23;45.85;;;31.83;;
45848;SDS011;31567;54.600;9.842;2024-03-02T08:52:03;46.97;;;32.28;;
45848;SDS011;31567;54.600;9.842;2024-03-02T08:55:42;47.97;;;31.05;;
45848;SDS011;31567;54.600;9.842;2024-03-02T08:59:22;43.15;;;30.58;;
45848;SDS011;31567;54.600;9.842;2024-03-02T09:03:04;44.72;;;30.40;;
45848;SDS011;31567;54.600;9.842;2024-03-02T09:06:43;43.45;;;30.85;;
45848;SDS011;31567;54.600;9.842;2024-03-02T09:10:23;43.30;;;30.40;;
45848;SDS011;31567;54.600;9.842;2024-03-02T09:14:02;44.88;;;30.77;;
45848;SDS011;31567;54.600;9.842;2024-03-02T09:17:42;45.20;;;30.65;;
45848;SDS011;31567;54.600;9.842;2024-03-02T09:21:21;45.50;;;30.02;;
45848;SDS011;31567;54.600;9.842;2024-03-02T09:25:01;47.22;;;32.55;;
45848;SDS011;31567;54.600;9.842;2024-03-02T09:28:44;46.85;;;31.40;;
45848;SDS011;31567;54.600;9.842;2024-03-02T09:32:23;48.42;;;31.73;;
45848;SDS011;31567;54.600;9.842;2024-03-02T09:36:03;45.17;;;31.95;;
45848;SDS011;31567;54.600;9.842;2024-03-02T09:39:43;41.42;;;28.85;;
45848;SDS011;31567;54.600;9.842;2024-03-02T09:43:24;41.88;;;31.00;;
45848;SDS011;31567;54.600;9.842;2024-03-02T09:47:04;41.53;;;29.70;;
45848;SDS011;31567;54.600;9.842;2024-03-02T09:50:44;36.78;;;27.80;;
45848;SDS011;31567;54.600;9.842;2024-03-02T09:54:24;43.15;;;30.98;;
45848;SDS011;31567;54.600;9.842;2024-03-02T09:58:04;35.60;;;26.88;;
45848;SDS011;31567;54.600;9.842;2024-03-02T10:01:59;34.97;;;24.98;;
45848;SDS011;31567;54.600;9.842;2024-03-02T10:05:40;28.70;;;21.63;;
45848;SDS011;31567;54.600;9.842;2024-03-02T10:09:29;29.95;;;22.10;;
45848;SDS011;31567;54.600;9.842;2024-03-02T10:13:09;26.83;;;21.95;;
45848;SDS011;31567;54.600;9.842;2024-03-02T10:16:50;28.48;;;21.10;;
45848;SDS011;31567;54.600;9.842;2024-03-02T10:20:29;27.27;;;19.67;;
45848;SDS011;31567;54.600;9.842;2024-03-02T10:24:09;33.30;;;21.80;;
45848;SDS011;31567;54.600;9.842;2024-03-02T10:27:52;26.58;;;19.50;;
45848;SDS011;31567;54.600;9.842;2024-03-02T10:31:32;27.00;;;20.55;;
45848;SDS011;31567;54.600;9.842;2024-03-02T10:35:12;28.38;;;20.00;;
45848;SDS011;31567;54.600;9.842;2024-03-02T10:38:53;26.42;;;19.42;;
45848;SDS011;31567;54.600;9.842;2024-03-02T10:42:35;23.70;;;17.95;;
45848;SDS011;31567;54.600;9.842;2024-03-02T10:46:16;23.73;;;19.35;;
45848;SDS011;31567;54.600;9.842;2024-03-02T10:49:59;24.77;;;18.88;;
45848;SDS011;31567;54.600;9.842;2024-03-02T10:53:40;22.33;;;18.73;;
45848;SDS011;31567;54.600;9.842;2024-03-02T10:57:21;22.52;;;17.95;;
45848;SDS011;31567;54.600;9.842;2024-03-02T11:01:02;21.65;;;17.80;;
45848;SDS011;31567;54.600;9.842;2024-03-02T11:04:42;27.23;;;19.27;;
45848;SDS011;31567;54.600;9.842;2024-03-02T11:08:25;20.92;;;17.95;;
45848;SDS011;31567;54.600;9.842;2024-03-02T11:12:15;22.75;;;16.27;;
45848;SDS011;31567;54.600;9.842;2024-03-02T11:15:59;20.90;;;17.10;;
45848;SDS011;31567;54.600;9.842;2024-03-02T11:19:44;23.25;;;17.45;;
45848;SDS011;31567;54.600;9.842;2024-03-02T11:23:31;22.48;;;17.50;;
45848;SDS011;31567;54.600;9.842;2024-03-02T11:27:12;21.52;;;16.35;;
45848;SDS011;31567;54.600;9.842;2024-03-02T11:30:54;20.10;;;16.13;;
45848;SDS011;31567;54.600;9.842;2024-03-02T11:34:34;20.20;;;17.08;;
45848;SDS011;31567;54.600;9.842;2024-03-02T11:38:14;21.05;;;16.13;;
45848;SDS011;31567;54.600;9.842;2024-03-02T11:41:54;21.48;;;16.25;;
45848;SDS011;31567;54.600;9.842;2024-03-02T11:45:35;19.80;;;15.88;;
45848;SDS011;31567;54.600;9.842;2024-03-02T11:53:18;21.27;;;16.50;;
45848;SDS011;31567;54.600;9.842;2024-03-02T11:56:58;20.50;;;16.88;;
45848;SDS011;31567;54.600;9.842;2024-03-02T12:00:41;21.42;;;16.50;;
45848;SDS011;31567;54.600;9.842;2024-03-02T12:04:21;23.45;;;17.10;;
45848;SDS011;31567;54.600;9.842;2024-03-02T12:08:04;21.33;;;15.98;;
45848;SDS011;31567;54.600;9.842;2024-03-02T12:11:45;21.25;;;17.02;;
45848;SDS011;31567;54.600;9.842;2024-03-02T12:15:32;20.73;;;16.58;;
45848;SDS011;31567;54.600;9.842;2024-03-02T12:19:13;20.80;;;16.73;;
45848;SDS011;31567;54.600;9.842;2024-03-02T12:22:55;20.10;;;17.20;;
45848;SDS011;31567;54.600;9.842;2024-03-02T12:26:36;21.30;;;16.45;;
45848;SDS011;31567;54.600;9.842;2024-03-02T12:30:17;19.95;;;17.02;;
45848;SDS011;31567;54.600;9.842;2024-03-02T12:33:57;23.75;;;17.77;;
45848;SDS011;31567;54.600;9.842;2024-03-02T12:37:41;23.17;;;17.02;;
45848;SDS011;31567;54.600;9.842;2024-03-02T12:41:24;21.67;;;15.93;;
45848;SDS011;31567;54.600;9.842;2024-03-02T12:45:04;21.35;;;16.70;;
45848;SDS011;31567;54.600;9.842;2024-03-02T12:48:45;20.40;;;16.58;;
45848;SDS011;31567;54.600;9.842;2024-03-02T12:52:25;19.83;;;17.15;;
45848;SDS011;31567;54.600;9.842;2024-03-02T12:56:05;20.05;;;16.50;;
45848;SDS011;31567;54.600;9.842;2024-03-02T12:59:46;21.13;;;16.65;;
45848;SDS011;31567;54.600;9.842;2024-03-02T13:03:26;18.58;;;15.23;;
45848;SDS011;31567;54.600;9.842;2024-03-02T13:07:08;20.48;;;16.15;;
45848;SDS011;31567;54.600;9.842;2024-03-02T13:10:47;20.10;;;16.08;;
45848;SDS011;31567;54.600;9.842;2024-03-02T13:14:27;21.27;;;16.13;;
45848;SDS011;31567;54.600;9.842;2024-03-02T13:18:07;18.52;;;15.82;;
45848;SDS011;31567;54.600;9.842;2024-03-02T13:21:48;18.98;;;15.30;;
45848;SDS011;31567;54.600;9.842;2024-03-02T13:25:29;21.05;;;16.63;;
45848;SDS011;31567;54.600;9.842;2024-03-02T13:29:10;23.10;;;16.35;;
45848;SDS011;31567;54.600;9.842;2024-03-02T13:32:50;20.05;;;15.80;;
45848;SDS011;31567;54.600;9.842;2024-03-02T13:36:30;18.48;;;15.43;;
45848;SDS011;31567;54.600;9.842;2024-03-02T13:40:10;18.05;;;15.23;;
45848;SDS011;31567;54.600;9.842;2024-03-02T13:43:52;19.58;;;16.58;;
45848;SDS011;31567;54.600;9.842;2024-03-02T13:47:32;20.00;;;17.00;;
45848;SDS011;31567;54.600;9.842;2024-03-02T13:51:12;21.35;;;16.70;;
45848;SDS011;31567;54.600;9.842;2024-03-02T13:54:51;21.85;;;16.95;;
45848;SDS011;31567;54.600;9.842;2024-03-02T13:58:34;20.85;;;16.30;;
45848;SDS011;31567;54.600;9.842;2024-03-02T14:02:13;21.95;;;16.80;;
45848;SDS011;31567;54.600;9.842;2024-03-02T14:05:54;19.80;;;17.10;;
45848;SDS011;31567;54.600;9.842;2024-03-02T14:09:34;17.42;;;15.45;;
45848;SDS011;31567;54.600;9.842;2024-03-02T14:13:14;19.63;;;15.48;;
45848;SDS011;31567;54.600;9.842;2024-03-02T14:16:54;20.33;;;16.42;;
45848;SDS011;31567;54.600;9.842;2024-03-02T14:20:42;22.35;;;17.92;;
45848;SDS011;31567;54.600;9.842;2024-03-02T14:24:22;23.75;;;17.55;;
45848;SDS011;31567;54.600;9.842;2024-03-02T14:28:04;23.90;;;18.58;;
45848;SDS011;31567;54.600;9.842;2024-03-02T14:31:44;22.58;;;18.77;;
45848;SDS011;31567;54.600;9.842;2024-03-02T14:35:27;26.58;;;20.83;;
45848;SDS011;31567;54.600;9.842;2024-03-02T14:39:07;26.33;;;21.88;;
45848;SDS011;31567;54.600;9.842;2024-03-02T14:42:49;31.13;;;22.10;;
45848;SDS011;31567;54.600;9.842;2024-03-02T14:46:28;26.10;;;21.58;;
45848;SDS011;31567;54.600;9.842;2024-03-02T14:50:09;24.60;;;19.65;;
45848;SDS011;31567;54.600;9.842;2024-03-02T14:53:50;24.70;;;19.65;;
45848;SDS011;31567;54.600;9.842;2024-03-02T14:57:30;25.85;;;19.05;;
45848;SDS011;31567;54.600;9.842;2024-03-02T15:01:10;26.95;;;20.83;;
45848;SDS011;31567;54.600;9.842;2024-03-02T15:04:49;25.25;;;20.17;;
45848;SDS011;31567;54.600;9.842;2024-03-02T15:08:30;28.40;;;22.63;;
45848;SDS011;31567;54.600;9.842;2024-03-02T15:12:09;28.85;;;22.10;;
45848;SDS011;31567;54.600;9.842;2024-03-02T15:15:51;29.85;;;23.60;;
45848;SDS011;31567;54.600;9.842;2024-03-02T15:19:31;28.05;;;22.33;;
45848;SDS011;31567;54.600;9.842;2024-03-02T15:23:11;30.85;;;22.77;;
45848;SDS011;31567;54.600;9.842;2024-03-02T15:26:50;28.98;;;23.33;;
45848;SDS011;31567;54.600;9.842;2024-03-02T15:30:30;27.23;;;22.10;;
45848;SDS011;31567;54.600;9.842;2024-03-02T15:34:09;29.45;;;23.13;;
45848;SDS011;31567;54.600;9.842;2024-03-02T15:37:49;29.52;;;23.15;;
45848;SDS011;31567;54.600;9.842;2024-03-02T15:41:29;32.60;;;24.83;;
45848;SDS011;31567;54.600;9.842;2024-03-02T15:45:08;31.30;;;24.17;;
45848;SDS011;31567;54.600;9.842;2024-03-02T15:48:48;29.45;;;23.25;;
45848;SDS011;31567;54.600;9.842;2024-03-02T15:52:28;28.58;;;23.38;;
45848;SDS011;31567;54.600;9.842;2024-03-02T15:56:07;26.80;;;23.00;;
45848;SDS011;31567;54.600;9.842;2024-03-02T15:59:47;28.33;;;21.75;;
45848;SDS011;31567;54.600;9.842;2024-03-02T16:03:26;26.88;;;20.70;;
45848;SDS011;31567;54.600;9.842;2024-03-02T16:07:06;24.85;;;20.75;;
45848;SDS011;31567;54.600;9.842;2024-03-02T16:10:46;24.73;;;21.50;;
45848;SDS011;31567;54.600;9.842;2024-03-02T16:14:25;26.27;;;20.48;;
45848;SDS011;31567;54.600;9.842;2024-03-02T16:18:05;23.58;;;19.52;;
45848;SDS011;31567;54.600;9.842;2024-03-02T16:21:44;26.83;;;20.63;;
45848;SDS011;31567;54.600;9.842;2024-03-02T16:25:24;24.08;;;19.92;;
45848;SDS011;31567;54.600;9.842;2024-03-02T16:29:03;25.58;;;19.92;;
45848;SDS011;31567;54.600;9.842;2024-03-02T16:32:43;23.90;;;20.10;;
45848;SDS011;31567;54.600;9.842;2024-03-02T16:36:22;25.65;;;20.95;;
45848;SDS011;31567;54.600;9.842;2024-03-02T16:40:02;24.25;;;20.92;;
45848;SDS011;31567;54.600;9.842;2024-03-02T16:43:42;29.90;;;22.58;;
45848;SDS011;31567;54.600;9.842;2024-03-02T16:47:24;27.25;;;21.35;;
45848;SDS011;31567;54.600;9.842;2024-03-02T16:51:05;26.73;;;22.40;;
45848;SDS011;31567;54.600;9.842;2024-03-02T16:54:48;34.08;;;24.83;;
45848;SDS011;31567;54.600;9.842;2024-03-02T16:58:28;35.05;;;26.40;;
45848;SDS011;31567;54.600;9.842;2024-03-02T17:02:08;36.70;;;27.50;;
45848;SDS011;31567;54.600;9.842;2024-03-02T17:05:49;38.03;;;27.85;;
45848;SDS011;31567;54.600;9.842;2024-03-02T17:09:28;37.47;;;27.42;;
45848;SDS011;31567;54.600;9.842;2024-03-02T17:13:08;40.30;;;30.15;;
45848;SDS011;31567;54.600;9.842;2024-03-02T17:16:48;41.40;;;29.02;;
45848;SDS011;31567;54.600;9.842;2024-03-02T17:20:28;43.28;;;30.35;;
45848;SDS011;31567;54.600;9.842;2024-03-02T17:24:08;41.78;;;29.35;;
45848;SDS011;31567;54.600;9.842;2024-03-02T17:27:48;36.25;;;27.38;;
45848;SDS011;31567;54.600;9.842;2024-03-02T17:31:27;42.30;;;29.52;;
45848;SDS011;31567;54.600;9.842;2024-03-02T17:35:08;45.88;;;29.58;;
45848;SDS011;31567;54.600;9.842;2024-03-02T17:38:48;38.15;;;27.15;;
45848;SDS011;31567;54.600;9.842;2024-03-02T17:42:28;43.67;;;29.17;;
45848;SDS011;31567;54.600;9.842;2024-03-02T17:46:08;43.15;;;29.13;;
45848;SDS011;31567;54.600;9.842;2024-03-02T17:49:47;44.45;;;29.65;;
45848;SDS011;31567;54.600;9.842;2024-03-02T17:53:27;43.88;;;28.92;;
45848;SDS011;31567;54.600;9.842;2024-03-02T17:57:06;44.05;;;29.70;;
45848;SDS011;31567;54.600;9.842;2024-03-02T18:00:46;44.20;;;28.40;;
45848;SDS011;31567;54.600;9.842;2024-03-02T18:04:25;39.80;;;28.17;;
45848;SDS011;31567;54.600;9.842;2024-03-02T18:08:05;39.25;;;28.85;;
45848;SDS011;31567;54.600;9.842;2024-03-02T18:11:45;46.45;;;30.45;;
45848;SDS011;31567;54.600;9.842;2024-03-02T18:15:25;44.90;;;29.70;;
45848;SDS011;31567;54.600;9.842;2024-03-02T18:19:04;41.10;;;28.02;;
45848;SDS011;31567;54.600;9.842;2024-03-02T18:22:44;44.67;;;29.08;;
45848;SDS011;31567;54.600;9.842;2024-03-02T18:26:23;40.28;;;28.05;;
45848;SDS011;31567;54.600;9.842;2024-03-02T18:30:04;41.38;;;29.30;;
45848;SDS011;31567;54.600;9.842;2024-03-02T18:33:48;43.08;;;28.58;;
45848;SDS011;31567;54.600;9.842;2024-03-02T18:37:28;44.05;;;29.13;;
45848;SDS011;31567;54.600;9.842;2024-03-02T18:41:07;43.22;;;27.08;;
45848;SDS011;31567;54.600;9.842;2024-03-02T18:44:47;39.75;;;27.92;;
45848;SDS011;31567;54.600;9.842;2024-03-02T18:48:28;43.83;;;28.10;;
45848;SDS011;31567;54.600;9.842;2024-03-02T18:52:08;38.75;;;26.58;;
45848;SDS011;31567;54.600;9.842;2024-03-02T18:55:47;37.70;;;26.40;;
45848;SDS011;31567;54.600;9.842;2024-03-02T18:59:28;39.03;;;26.88;;
45848;SDS011;31567;54.600;9.842;2024-03-02T19:03:09;38.50;;;25.73;;
45848;SDS011;31567;54.600;9.842;2024-03-02T19:06:49;36.88;;;25.90;;
45848;SDS011;31567;54.600;9.842;2024-03-02T19:10:28;39.22;;;25.27;;
45848;SDS011;31567;54.600;9.842;2024-03-02T19:14:08;34.83;;;25.88;;
45848;SDS011;31567;54.600;9.842;2024-03-02T19:17:49;39.05;;;25.40;;
45848;SDS011;31567;54.600;9.842;2024-03-02T19:21:31;36.05;;;24.98;;
45848;SDS011;31567;54.600;9.842;2024-03-02T19:25:11;34.47;;;24.63;;
45848;SDS011;31567;54.600;9.842;2024-03-02T19:28:52;37.55;;;25.20;;
45848;SDS011;31567;54.600;9.842;2024-03-02T19:32:31;38.58;;;25.80;;
45848;SDS011;31567;54.600;9.842;2024-03-02T19:36:11;37.47;;;25.58;;
45848;SDS011;31567;54.600;9.842;2024-03-02T19:39:51;42.05;;;25.38;;
45848;SDS011;31567;54.600;9.842;2024-03-02T19:43:31;39.20;;;26.55;;
45848;SDS011;31567;54.600;9.842;2024-03-02T19:47:11;41.30;;;26.20;;
45848;SDS011;31567;54.600;9.842;2024-03-02T19:50:53;40.85;;;26.60;;
45848;SDS011;31567;54.600;9.842;2024-03-02T19:54:34;36.53;;;25.40;;
45848;SDS011;31567;54.600;9.842;2024-03-02T19:58:13;39.60;;;27.02;;
45848;SDS011;31567;54.600;9.842;2024-03-02T20:01:53;39.83;;;27.08;;
45848;SDS011;31567;54.600;9.842;2024-03-02T20:05:33;38.55;;;25.27;;
45848;SDS011;31567;54.600;9.842;2024-03-02T20:09:12;43.78;;;26.70;;
45848;SDS011;31567;54.600;9.842;2024-03-02T20:12:52;41.00;;;28.27;;
45848;SDS011;31567;54.600;9.842;2024-03-02T20:16:31;43.08;;;28.17;;
45848;SDS011;31567;54.600;9.842;2024-03-02T20:20:12;41.33;;;29.00;;
45848;SDS011;31567;54.600;9.842;2024-03-02T20:23:52;46.40;;;29.30;;
45848;SDS011;31567;54.600;9.842;2024-03-02T20:27:32;46.92;;;28.92;;
45848;SDS011;31567;54.600;9.842;2024-03-02T20:31:11;48.95;;;29.10;;
45848;SDS011;31567;54.600;9.842;2024-03-02T20:34:53;48.92;;;29.30;;
45848;SDS011;31567;54.600;9.842;2024-03-02T20:38:32;41.95;;;28.38;;
45848;SDS011;31567;54.600;9.842;2024-03-02T20:42:12;44.40;;;28.80;;
45848;SDS011;31567;54.600;9.842;2024-03-02T20:45:52;48.53;;;30.85;;
45848;SDS011;31567;54.600;9.842;2024-03-02T20:49:31;47.42;;;30.40;;
45848;SDS011;31567;54.600;9.842;2024-03-02T20:53:11;47.30;;;30.63;;
45848;SDS011;31567;54.600;9.842;2024-03-02T20:56:51;48.42;;;30.83;;
45848;SDS011;31567;54.600;9.842;2024-03-02T21:00:31;46.15;;;29.25;;
45848;SDS011;31567;54.600;9.842;2024-03-02T21:04:10;45.97;;;31.08;;
45848;SDS011;31567;54.600;9.842;2024-03-02T21:07:52;48.70;;;30.77;;
45848;SDS011;31567;54.600;9.842;2024-03-02T21:11:32;45.80;;;29.33;;
45848;SDS011;31567;54.600;9.842;2024-03-02T21:15:11;47.70;;;31.42;;
45848;SDS011;31567;54.600;9.842;2024-03-02T21:18:51;48.95;;;31.55;;
45848;SDS011;31567;54.600;9.842;2024-03-02T21:22:32;45.78;;;29.70;;
45848;SDS011;31567;54.600;9.842;2024-03-02T21:26:12;45.13;;;29.73;;
45848;SDS011;31567;54.600;9.842;2024-03-02T21:29:51;45.00;;;30.50;;
45848;SDS011;31567;54.600;9.842;2024-03-02T21:33:31;44.97;;;28.83;;